sensor_id;sensor_type;location;lat;lon;timestamp;P1;durP1;ratioP1;P2;durP2;ratioP2
83513;SDS011;73447;53.262;10.424;2024-03-06T00:02:09;17.80;;;9.82;;
83513;SDS011;73447;53.262;10.424;2024-03-06T00:04:34;22.27;;;10.27;;
83513;SDS011;73447;53.262;10.424;2024-03-06T00:07:00;22.25;;;9.93;;
83513;SDS011;73447;53.262;10.424;2024-03-06T00:09:26;18.27;;;9.35;;
83513;SDS011;73447;53.262;10.424;2024-03-06T00:11:54;22.83;;;11.00;;
83513;SDS011;73447;53.262;10.424;2024-03-06T00:14:20;18.88;;;9.95;;
83513;SDS011;73447;53.262;10.424;2024-03-06T00:16:49;19.73;;;10.90;;
83513;SDS011;73447;53.262;10.424;2024-03-06T00:19:16;18.58;;;9.35;;
83513;SDS011;73447;53.262;10.424;2024-03-06T00:21:42;23.38;;;10.70;;
83513;SDS011;73447;53.262;10.424;2024-03-06T00:24:07;18.67;;;9.93;;
83513;SDS011;73447;53.262;10.424;2024-03-06T00:26:33;16.20;;;8.45;;
83513;SDS011;73447;53.262;10.424;2024-03-06T00:28:59;16.38;;;8.95;;
83513;SDS011;73447;53.262;10.424;2024-03-06T00:31:24;17.20;;;9.65;;
83513;SDS011;73447;53.262;10.424;2024-03-06T00:33:50;21.80;;;9.38;;
83513;SDS011;73447;53.262;10.424;2024-03-06T00:36:15;18.50;;;9.05;;
83513;SDS011;73447;53.262;10.424;2024-03-06T00:38:41;19.63;;;10.27;;
83513;SDS011;73447;53.262;10.424;2024-03-06T00:41:06;29.83;;;11.57;;
83513;SDS011;73447;53.262;10.424;2024-03-06T00:43:32;23.58;;;11.07;;
83513;SDS011;73447;53.262;10.424;2024-03-06T00:45:57;19.40;;;10.45;;
83513;SDS011;73447;53.262;10.424;2024-03-06T00:48:24;19.02;;;10.07;;
83513;SDS011;73447;53.262;10.424;2024-03-06T00:50:50;19.42;;;10.10;;
83513;SDS011;73447;53.262;10.424;2024-03-06T00:53:15;19.05;;;10.75;;
83513;SDS011;73447;53.262;10.424;2024-03-06T00:55:40;17.73;;;9.50;;
83513;SDS011;73447;53.262;10.424;2024-03-06T00:58:06;22.05;;;9.68;;
83513;SDS011;73447;53.262;10.424;2024-03-06T01:00:32;26.42;;;10.63;;
83513;SDS011;73447;53.262;10.424;2024-03-06T01:02:57;20.67;;;10.18;;
83513;SDS011;73447;53.262;10.424;2024-03-06T01:05:23;22.52;;;11.18;;
83513;SDS011;73447;53.262;10.424;2024-03-06T01:07:48;22.60;;;11.63;;
83513;SDS011;73447;53.262;10.424;2024-03-06T01:10:14;21.42;;;11.57;;
83513;SDS011;73447;53.262;10.424;2024-03-06T01:12:39;26.25;;;12.05;;
83513;SDS011;73447;53.262;10.424;2024-03-06T01:15:05;22.20;;;11.02;;
83513;SDS011;73447;53.262;10.424;2024-03-06T01:17:30;19.75;;;9.75;;
83513;SDS011;73447;53.262;10.424;2024-03-06T01:19:56;28.23;;;12.07;;
83513;SDS011;73447;53.262;10.424;2024-03-06T01:22:21;25.52;;;13.10;;
83513;SDS011;73447;53.262;10.424;2024-03-06T01:24:46;26.70;;;12.95;;
83513;SDS011;73447;53.262;10.424;2024-03-06T01:27:15;26.65;;;13.82;;
83513;SDS011;73447;53.262;10.424;2024-03-06T01:29:41;29.95;;;13.40;;
83513;SDS011;73447;53.262;10.424;2024-03-06T01:32:06;24.98;;;12.90;;
83513;SDS011;73447;53.262;10.424;2024-03-06T01:34:32;22.25;;;12.82;;
83513;SDS011;73447;53.262;10.424;2024-03-06T01:36:57;21.92;;;11.27;;
83513;SDS011;73447;53.262;10.424;2024-03-06T01:39:22;20.05;;;11.15;;
83513;SDS011;73447;53.262;10.424;2024-03-06T01:41:50;24.10;;;12.38;;
83513;SDS011;73447;53.262;10.424;2024-03-06T01:44:17;21.20;;;11.00;;
83513;SDS011;73447;53.262;10.424;2024-03-06T01:46:43;17.98;;;9.50;;
83513;SDS011;73447;53.262;10.424;2024-03-06T01:49:10;17.08;;;9.65;;
83513;SDS011;73447;53.262;10.424;2024-03-06T01:51:38;17.90;;;10.15;;
83513;SDS011;73447;53.262;10.424;2024-03-06T01:54:04;20.23;;;10.57;;
83513;SDS011;73447;53.262;10.424;2024-03-06T01:56:30;19.83;;;9.90;;
83513;SDS011;73447;53.262;10.424;2024-03-06T01:58:59;18.92;;;9.73;;
83513;SDS011;73447;53.262;10.424;2024-03-06T02:01:25;19.55;;;8.98;;
83513;SDS011;73447;53.262;10.424;2024-03-06T02:03:51;18.27;;;9.40;;
83513;SDS011;73447;53.262;10.424;2024-03-06T02:06:17;18.90;;;9.07;;
83513;SDS011;73447;53.262;10.424;2024-03-06T02:08:47;21.60;;;9.55;;
83513;SDS011;73447;53.262;10.424;2024-03-06T02:11:12;17.63;;;8.85;;
83513;SDS011;73447;53.262;10.424;2024-03-06T02:13:41;17.10;;;8.93;;
83513;SDS011;73447;53.262;10.424;2024-03-06T02:16:07;19.27;;;8.85;;
83513;SDS011;73447;53.262;10.424;2024-03-06T02:18:32;16.58;;;9.25;;
83513;SDS011;73447;53.262;10.424;2024-03-06T02:20:58;15.90;;;8.98;;
83513;SDS011;73447;53.262;10.424;2024-03-06T02:23:23;19.60;;;9.30;;
83513;SDS011;73447;53.262;10.424;2024-03-06T02:25:49;17.17;;;8.98;;
83513;SDS011;73447;53.262;10.424;2024-03-06T02:28:15;21.40;;;9.55;;
83513;SDS011;73447;53.262;10.424;2024-03-06T02:30:42;18.42;;;9.38;;
83513;SDS011;73447;53.262;10.424;2024-03-06T02:33:07;17.40;;;9.43;;
83513;SDS011;73447;53.262;10.424;2024-03-06T02:35:34;15.10;;;8.07;;
83513;SDS011;73447;53.262;10.424;2024-03-06T02:38:01;18.08;;;8.93;;
83513;SDS011;73447;53.262;10.424;2024-03-06T02:40:28;22.77;;;10.32;;
83513;SDS011;73447;53.262;10.424;2024-03-06T02:42:53;16.52;;;8.75;;
83513;SDS011;73447;53.262;10.424;2024-03-06T02:45:19;18.08;;;9.50;;
83513;SDS011;73447;53.262;10.424;2024-03-06T02:47:44;17.50;;;9.80;;
83513;SDS011;73447;53.262;10.424;2024-03-06T02:50:10;16.10;;;8.32;;
83513;SDS011;73447;53.262;10.424;2024-03-06T02:52:35;20.13;;;9.32;;
83513;SDS011;73447;53.262;10.424;2024-03-06T02:55:01;16.45;;;8.88;;
83513;SDS011;73447;53.262;10.424;2024-03-06T02:57:27;17.73;;;9.38;;
83513;SDS011;73447;53.262;10.424;2024-03-06T02:59:53;15.95;;;8.27;;
83513;SDS011;73447;53.262;10.424;2024-03-06T03:02:19;15.90;;;8.68;;
83513;SDS011;73447;53.262;10.424;2024-03-06T03:04:44;18.52;;;9.30;;
83513;SDS011;73447;53.262;10.424;2024-03-06T03:07:09;17.35;;;8.77;;
83513;SDS011;73447;53.262;10.424;2024-03-06T03:09:35;17.73;;;7.97;;
83513;SDS011;73447;53.262;10.424;2024-03-06T03:12:01;13.27;;;7.13;;
83513;SDS011;73447;53.262;10.424;2024-03-06T03:14:27;16.08;;;8.25;;
83513;SDS011;73447;53.262;10.424;2024-03-06T03:16:52;15.07;;;8.07;;
83513;SDS011;73447;53.262;10.424;2024-03-06T03:19:18;14.85;;;8.00;;
83513;SDS011;73447;53.262;10.424;2024-03-06T03:21:44;14.75;;;7.90;;
83513;SDS011;73447;53.262;10.424;2024-03-06T03:24:10;15.95;;;8.65;;
83513;SDS011;73447;53.262;10.424;2024-03-06T03:26:35;15.48;;;7.95;;
83513;SDS011;73447;53.262;10.424;2024-03-06T03:29:02;15.00;;;8.80;;
83513;SDS011;73447;53.262;10.424;2024-03-06T03:31:28;18.65;;;8.95;;
83513;SDS011;73447;53.262;10.424;2024-03-06T03:33:53;19.27;;;10.32;;
83513;SDS011;73447;53.262;10.424;2024-03-06T03:36:19;14.80;;;8.68;;
83513;SDS011;73447;53.262;10.424;2024-03-06T03:38:44;15.85;;;8.45;;
83513;SDS011;73447;53.262;10.424;2024-03-06T03:41:10;16.00;;;8.60;;
83513;SDS011;73447;53.262;10.424;2024-03-06T03:43:41;17.40;;;8.15;;
83513;SDS011;73447;53.262;10.424;2024-03-06T03:46:07;18.05;;;8.88;;
83513;SDS011;73447;53.262;10.424;2024-03-06T03:48:34;14.25;;;8.93;;
83513;SDS011;73447;53.262;10.424;2024-03-06T03:51:02;15.07;;;7.65;;
83513;SDS011;73447;53.262;10.424;2024-03-06T03:53:30;18.40;;;8.70;;
83513;SDS011;73447;53.262;10.424;2024-03-06T03:55:55;16.00;;;8.38;;
83513;SDS011;73447;53.262;10.424;2024-03-06T03:58:21;17.00;;;8.82;;
83513;SDS011;73447;53.262;10.424;2024-03-06T04:00:46;14.55;;;8.05;;
83513;SDS011;73447;53.262;10.424;2024-03-06T04:03:12;17.20;;;8.50;;
83513;SDS011;73447;53.262;10.424;2024-03-06T04:05:37;15.20;;;7.93;;
83513;SDS011;73447;53.262;10.424;2024-03-06T04:08:03;16.25;;;8.73;;
83513;SDS011;73447;53.262;10.424;2024-03-06T04:10:31;15.52;;;8.85;;
83513;SDS011;73447;53.262;10.424;2024-03-06T04:12:57;16.98;;;8.88;;
83513;SDS011;73447;53.262;10.424;2024-03-06T04:15:24;14.32;;;7.78;;
83513;SDS011;73447;53.262;10.424;2024-03-06T04:17:50;17.30;;;8.55;;
83513;SDS011;73447;53.262;10.424;2024-03-06T04:20:15;15.32;;;8.05;;
83513;SDS011;73447;53.262;10.424;2024-03-06T04:22:41;15.73;;;8.02;;
83513;SDS011;73447;53.262;10.424;2024-03-06T04:25:06;15.95;;;8.45;;
83513;SDS011;73447;53.262;10.424;2024-03-06T04:27:32;16.00;;;7.85;;
83513;SDS011;73447;53.262;10.424;2024-03-06T04:29:58;16.85;;;8.55;;
83513;SDS011;73447;53.262;10.424;2024-03-06T04:32:23;15.48;;;8.77;;
83513;SDS011;73447;53.262;10.424;2024-03-06T04:34:49;16.98;;;9.10;;
83513;SDS011;73447;53.262;10.424;2024-03-06T04:37:14;13.35;;;7.63;;
83513;SDS011;73447;53.262;10.424;2024-03-06T04:39:40;13.98;;;7.82;;
83513;SDS011;73447;53.262;10.424;2024-03-06T04:42:06;18.27;;;8.85;;
83513;SDS011;73447;53.262;10.424;2024-03-06T04:44:33;15.45;;;7.63;;
83513;SDS011;73447;53.262;10.424;2024-03-06T04:46:59;21.52;;;8.60;;
83513;SDS011;73447;53.262;10.424;2024-03-06T04:49:24;17.60;;;8.35;;
83513;SDS011;73447;53.262;10.424;2024-03-06T04:51:50;16.42;;;9.13;;
83513;SDS011;73447;53.262;10.424;2024-03-06T04:54:15;19.42;;;9.27;;
83513;SDS011;73447;53.262;10.424;2024-03-06T04:56:40;15.32;;;8.45;;
83513;SDS011;73447;53.262;10.424;2024-03-06T04:59:06;19.77;;;9.23;;
83513;SDS011;73447;53.262;10.424;2024-03-06T05:01:31;23.35;;;9.40;;
83513;SDS011;73447;53.262;10.424;2024-03-06T05:03:56;16.38;;;8.10;;
83513;SDS011;73447;53.262;10.424;2024-03-06T05:06:22;19.38;;;7.95;;
83513;SDS011;73447;53.262;10.424;2024-03-06T05:08:47;20.52;;;9.32;;
83513;SDS011;73447;53.262;10.424;2024-03-06T05:11:13;18.45;;;7.88;;
83513;SDS011;73447;53.262;10.424;2024-03-06T05:13:40;18.67;;;8.20;;
83513;SDS011;73447;53.262;10.424;2024-03-06T05:16:05;15.00;;;7.75;;
83513;SDS011;73447;53.262;10.424;2024-03-06T05:18:33;15.70;;;8.27;;
83513;SDS011;73447;53.262;10.424;2024-03-06T05:20:59;15.95;;;8.88;;
83513;SDS011;73447;53.262;10.424;2024-03-06T05:23:24;18.90;;;8.98;;
83513;SDS011;73447;53.262;10.424;2024-03-06T05:25:50;22.50;;;9.38;;
83513;SDS011;73447;53.262;10.424;2024-03-06T05:28:15;15.73;;;9.52;;
83513;SDS011;73447;53.262;10.424;2024-03-06T05:30:41;16.50;;;9.05;;
83513;SDS011;73447;53.262;10.424;2024-03-06T05:33:06;21.60;;;10.18;;
83513;SDS011;73447;53.262;10.424;2024-03-06T05:35:32;16.98;;;10.18;;
83513;SDS011;73447;53.262;10.424;2024-03-06T05:37:57;16.35;;;9.27;;
83513;SDS011;73447;53.262;10.424;2024-03-06T05:40:22;18.60;;;9.57;;
83513;SDS011;73447;53.262;10.424;2024-03-06T05:42:48;16.63;;;8.40;;
83513;SDS011;73447;53.262;10.424;2024-03-06T05:45:14;17.30;;;8.73;;
83513;SDS011;73447;53.262;10.424;2024-03-06T05:47:40;17.75;;;8.40;;
83513;SDS011;73447;53.262;10.424;2024-03-06T05:50:05;17.38;;;8.73;;
83513;SDS011;73447;53.262;10.424;2024-03-06T05:52:31;15.23;;;8.55;;
83513;SDS011;73447;53.262;10.424;2024-03-06T05:54:57;18.20;;;8.68;;
83513;SDS011;73447;53.262;10.424;2024-03-06T05:57:22;20.45;;;9.07;;
83513;SDS011;73447;53.262;10.424;2024-03-06T05:59:48;17.83;;;8.75;;
83513;SDS011;73447;53.262;10.424;2024-03-06T06:02:13;17.98;;;9.20;;
83513;SDS011;73447;53.262;10.424;2024-03-06T06:04:41;22.80;;;8.73;;
83513;SDS011;73447;53.262;10.424;2024-03-06T06:07:07;21.17;;;9.70;;
83513;SDS011;73447;53.262;10.424;2024-03-06T06:09:32;20.40;;;10.60;;
83513;SDS011;73447;53.262;10.424;2024-03-06T06:11:58;21.80;;;11.05;;
83513;SDS011;73447;53.262;10.424;2024-03-06T06:14:24;15.68;;;8.88;;
83513;SDS011;73447;53.262;10.424;2024-03-06T06:16:51;16.85;;;9.00;;
83513;SDS011;73447;53.262;10.424;2024-03-06T06:19:17;17.52;;;8.88;;
83513;SDS011;73447;53.262;10.424;2024-03-06T06:21:43;17.63;;;9.35;;
83513;SDS011;73447;53.262;10.424;2024-03-06T06:24:08;23.73;;;10.80;;
83513;SDS011;73447;53.262;10.424;2024-03-06T06:26:34;21.27;;;11.40;;
83513;SDS011;73447;53.262;10.424;2024-03-06T06:28:59;24.83;;;14.52;;
83513;SDS011;73447;53.262;10.424;2024-03-06T06:31:24;25.77;;;13.52;;
83513;SDS011;73447;53.262;10.424;2024-03-06T06:33:51;24.50;;;12.98;;
83513;SDS011;73447;53.262;10.424;2024-03-06T06:36:17;25.38;;;13.60;;
83513;SDS011;73447;53.262;10.424;2024-03-06T06:38:43;27.13;;;12.95;;
83513;SDS011;73447;53.262;10.424;2024-03-06T06:41:09;24.20;;;14.05;;
83513;SDS011;73447;53.262;10.424;2024-03-06T06:43:35;23.95;;;13.43;;
83513;SDS011;73447;53.262;10.424;2024-03-06T06:46:00;24.40;;;14.00;;
83513;SDS011;73447;53.262;10.424;2024-03-06T06:48:26;16.38;;;11.02;;
83513;SDS011;73447;53.262;10.424;2024-03-06T06:50:52;21.00;;;11.27;;
83513;SDS011;73447;53.262;10.424;2024-03-06T06:53:17;21.20;;;11.07;;
83513;SDS011;73447;53.262;10.424;2024-03-06T06:55:43;25.38;;;11.85;;
83513;SDS011;73447;53.262;10.424;2024-03-06T06:58:08;19.92;;;10.88;;
83513;SDS011;73447;53.262;10.424;2024-03-06T07:00:33;22.63;;;10.45;;
83513;SDS011;73447;53.262;10.424;2024-03-06T07:02:59;24.08;;;10.80;;
83513;SDS011;73447;53.262;10.424;2024-03-06T07:05:25;20.70;;;10.82;;
83513;SDS011;73447;53.262;10.424;2024-03-06T07:07:51;18.00;;;9.93;;
83513;SDS011;73447;53.262;10.424;2024-03-06T07:10:18;21.02;;;10.65;;
83513;SDS011;73447;53.262;10.424;2024-03-06T07:12:44;22.83;;;10.93;;
83513;SDS011;73447;53.262;10.424;2024-03-06T07:15:09;19.27;;;10.25;;
83513;SDS011;73447;53.262;10.424;2024-03-06T07:17:35;16.50;;;9.80;;
83513;SDS011;73447;53.262;10.424;2024-03-06T07:20:00;18.83;;;9.75;;
83513;SDS011;73447;53.262;10.424;2024-03-06T07:22:25;20.58;;;10.13;;
83513;SDS011;73447;53.262;10.424;2024-03-06T07:24:51;18.30;;;10.90;;
83513;SDS011;73447;53.262;10.424;2024-03-06T07:27:16;19.83;;;9.38;;
83513;SDS011;73447;53.262;10.424;2024-03-06T07:29:43;17.67;;;10.43;;
83513;SDS011;73447;53.262;10.424;2024-03-06T07:32:09;15.20;;;8.88;;
83513;SDS011;73447;53.262;10.424;2024-03-06T07:34:34;15.73;;;9.88;;
83513;SDS011;73447;53.262;10.424;2024-03-06T07:37:00;20.20;;;10.23;;
83513;SDS011;73447;53.262;10.424;2024-03-06T07:39:25;17.33;;;9.57;;
83513;SDS011;73447;53.262;10.424;2024-03-06T07:41:51;18.48;;;10.18;;
83513;SDS011;73447;53.262;10.424;2024-03-06T07:44:16;18.45;;;10.10;;
83513;SDS011;73447;53.262;10.424;2024-03-06T07:46:42;22.35;;;10.25;;
83513;SDS011;73447;53.262;10.424;2024-03-06T07:49:07;23.05;;;11.80;;
83513;SDS011;73447;53.262;10.424;2024-03-06T07:51:32;21.73;;;11.57;;
83513;SDS011;73447;53.262;10.424;2024-03-06T07:53:58;16.77;;;10.35;;
83513;SDS011;73447;53.262;10.424;2024-03-06T07:56:24;20.85;;;10.68;;
83513;SDS011;73447;53.262;10.424;2024-03-06T07:58:50;18.17;;;9.98;;
83513;SDS011;73447;53.262;10.424;2024-03-06T08:01:16;15.38;;;9.50;;
83513;SDS011;73447;53.262;10.424;2024-03-06T08:03:42;15.25;;;9.43;;
83513;SDS011;73447;53.262;10.424;2024-03-06T08:06:08;14.98;;;9.20;;
83513;SDS011;73447;53.262;10.424;2024-03-06T08:08:34;14.55;;;9.13;;
83513;SDS011;73447;53.262;10.424;2024-03-06T08:11:05;12.55;;;8.23;;
83513;SDS011;73447;53.262;10.424;2024-03-06T08:13:30;12.80;;;7.53;;
83513;SDS011;73447;53.262;10.424;2024-03-06T08:15:55;15.43;;;8.60;;
83513;SDS011;73447;53.262;10.424;2024-03-06T08:18:21;14.98;;;9.20;;
83513;SDS011;73447;53.262;10.424;2024-03-06T08:20:46;14.43;;;8.82;;
83513;SDS011;73447;53.262;10.424;2024-03-06T08:23:12;15.45;;;9.30;;
83513;SDS011;73447;53.262;10.424;2024-03-06T08:25:37;15.38;;;8.80;;
83513;SDS011;73447;53.262;10.424;2024-03-06T08:28:03;14.02;;;8.85;;
83513;SDS011;73447;53.262;10.424;2024-03-06T08:30:30;13.10;;;8.85;;
83513;SDS011;73447;53.262;10.424;2024-03-06T08:32:56;14.43;;;9.18;;
83513;SDS011;73447;53.262;10.424;2024-03-06T08:35:21;18.52;;;9.68;;
83513;SDS011;73447;53.262;10.424;2024-03-06T08:37:48;15.77;;;9.25;;
83513;SDS011;73447;53.262;10.424;2024-03-06T08:40:15;17.98;;;9.57;;
83513;SDS011;73447;53.262;10.424;2024-03-06T08:42:48;16.67;;;9.68;;
83513;SDS011;73447;53.262;10.424;2024-03-06T08:45:14;14.27;;;9.18;;
83513;SDS011;73447;53.262;10.424;2024-03-06T08:47:41;14.43;;;9.48;;
83513;SDS011;73447;53.262;10.424;2024-03-06T08:50:08;18.25;;;10.38;;
83513;SDS011;73447;53.262;10.424;2024-03-06T08:52:34;16.83;;;9.68;;
83513;SDS011;73447;53.262;10.424;2024-03-06T08:55:00;18.67;;;10.15;;
83513;SDS011;73447;53.262;10.424;2024-03-06T08:57:26;18.92;;;10.63;;
83513;SDS011;73447;53.262;10.424;2024-03-06T08:59:54;17.48;;;9.40;;
83513;SDS011;73447;53.262;10.424;2024-03-06T09:02:19;16.90;;;10.55;;
83513;SDS011;73447;53.262;10.424;2024-03-06T09:04:45;17.15;;;9.90;;
83513;SDS011;73447;53.262;10.424;2024-03-06T09:07:11;16.10;;;9.52;;
83513;SDS011;73447;53.262;10.424;2024-03-06T09:09:38;14.13;;;9.15;;
83513;SDS011;73447;53.262;10.424;2024-03-06T09:12:07;20.45;;;10.20;;
83513;SDS011;73447;53.262;10.424;2024-03-06T09:14:35;13.63;;;9.32;;
83513;SDS011;73447;53.262;10.424;2024-03-06T09:17:04;18.02;;;8.93;;
83513;SDS011;73447;53.262;10.424;2024-03-06T09:19:31;14.65;;;9.35;;
83513;SDS011;73447;53.262;10.424;2024-03-06T09:21:57;16.50;;;9.23;;
83513;SDS011;73447;53.262;10.424;2024-03-06T09:24:23;15.60;;;9.70;;
83513;SDS011;73447;53.262;10.424;2024-03-06T09:26:50;16.27;;;9.73;;
83513;SDS011;73447;53.262;10.424;2024-03-06T09:29:15;14.20;;;9.35;;
83513;SDS011;73447;53.262;10.424;2024-03-06T09:31:41;13.57;;;8.35;;
83513;SDS011;73447;53.262;10.424;2024-03-06T09:34:07;17.95;;;9.40;;
83513;SDS011;73447;53.262;10.424;2024-03-06T09:36:36;15.48;;;9.45;;
83513;SDS011;73447;53.262;10.424;2024-03-06T09:39:02;18.88;;;10.02;;
83513;SDS011;73447;53.262;10.424;2024-03-06T09:41:29;16.52;;;9.57;;
83513;SDS011;73447;53.262;10.424;2024-03-06T09:43:55;16.05;;;9.95;;
83513;SDS011;73447;53.262;10.424;2024-03-06T09:46:20;19.45;;;9.57;;
83513;SDS011;73447;53.262;10.424;2024-03-06T09:48:47;15.75;;;9.43;;
83513;SDS011;73447;53.262;10.424;2024-03-06T09:51:13;15.73;;;9.93;;
83513;SDS011;73447;53.262;10.424;2024-03-06T09:53:39;17.77;;;9.73;;
83513;SDS011;73447;53.262;10.424;2024-03-06T09:56:07;15.82;;;9.05;;
83513;SDS011;73447;53.262;10.424;2024-03-06T09:58:33;16.88;;;10.23;;
83513;SDS011;73447;53.262;10.424;2024-03-06T10:00:59;17.67;;;9.88;;
83513;SDS011;73447;53.262;10.424;2024-03-06T10:03:28;15.98;;;9.95;;
83513;SDS011;73447;53.262;10.424;2024-03-06T10:05:53;16.13;;;10.00;;
83513;SDS011;73447;53.262;10.424;2024-03-06T10:08:20;15.55;;;9.10;;
83513;SDS011;73447;53.262;10.424;2024-03-06T10:10:49;13.52;;;9.32;;
83513;SDS011;73447;53.262;10.424;2024-03-06T10:13:18;14.65;;;9.68;;
83513;SDS011;73447;53.262;10.424;2024-03-06T10:15:57;18.25;;;9.43;;
83513;SDS011;73447;53.262;10.424;2024-03-06T10:18:23;15.05;;;10.32;;
83513;SDS011;73447;53.262;10.424;2024-03-06T10:20:52;17.05;;;10.20;;
83513;SDS011;73447;53.262;10.424;2024-03-06T10:23:18;16.27;;;10.38;;
83513;SDS011;73447;53.262;10.424;2024-03-06T10:25:43;17.65;;;10.43;;
83513;SDS011;73447;53.262;10.424;2024-03-06T10:28:15;20.90;;;11.00;;
83513;SDS011;73447;53.262;10.424;2024-03-06T10:30:42;19.35;;;10.90;;
83513;SDS011;73447;53.262;10.424;2024-03-06T10:33:08;20.10;;;11.07;;
83513;SDS011;73447;53.262;10.424;2024-03-06T10:35:34;17.45;;;10.77;;
83513;SDS011;73447;53.262;10.424;2024-03-06T10:38:02;17.02;;;10.45;;
83513;SDS011;73447;53.262;10.424;2024-03-06T10:40:32;18.85;;;11.10;;
83513;SDS011;73447;53.262;10.424;2024-03-06T10:42:59;19.23;;;11.75;;
83513;SDS011;73447;53.262;10.424;2024-03-06T10:45:32;20.48;;;11.95;;
83513;SDS011;73447;53.262;10.424;2024-03-06T10:48:09;18.73;;;11.80;;
83513;SDS011;73447;53.262;10.424;2024-03-06T10:50:41;19.85;;;11.65;;
83513;SDS011;73447;53.262;10.424;2024-03-06T10:53:10;20.70;;;12.60;;
83513;SDS011;73447;53.262;10.424;2024-03-06T10:55:38;20.08;;;11.90;;
83513;SDS011;73447;53.262;10.424;2024-03-06T10:58:07;18.73;;;11.40;;
83513;SDS011;73447;53.262;10.424;2024-03-06T11:00:53;16.50;;;10.50;;
83513;SDS011;73447;53.262;10.424;2024-03-06T11:03:22;17.77;;;11.77;;
83513;SDS011;73447;53.262;10.424;2024-03-06T11:05:51;20.88;;;12.40;;
83513;SDS011;73447;53.262;10.424;2024-03-06T11:08:16;19.65;;;12.13;;
83513;SDS011;73447;53.262;10.424;2024-03-06T11:10:42;18.98;;;12.00;;
83513;SDS011;73447;53.262;10.424;2024-03-06T11:15:43;18.45;;;10.50;;
83513;SDS011;73447;53.262;10.424;2024-03-06T11:18:40;20.10;;;11.85;;
83513;SDS011;73447;53.262;10.424;2024-03-06T11:23:28;18.23;;;11.63;;
83513;SDS011;73447;53.262;10.424;2024-03-06T11:30:56;15.32;;;10.20;;
83513;SDS011;73447;53.262;10.424;2024-03-06T11:33:45;15.68;;;9.65;;
83513;SDS011;73447;53.262;10.424;2024-03-06T11:36:29;17.08;;;9.75;;
83513;SDS011;73447;53.262;10.424;2024-03-06T11:39:05;15.10;;;10.10;;
83513;SDS011;73447;53.262;10.424;2024-03-06T11:41:45;14.65;;;8.88;;
83513;SDS011;73447;53.262;10.424;2024-03-06T11:44:12;17.95;;;10.30;;
83513;SDS011;73447;53.262;10.424;2024-03-06T11:46:43;16.08;;;10.00;;
83513;SDS011;73447;53.262;10.424;2024-03-06T11:51:42;17.55;;;10.38;;
83513;SDS011;73447;53.262;10.424;2024-03-06T11:54:10;15.60;;;9.95;;
83513;SDS011;73447;53.262;10.424;2024-03-06T11:56:35;18.20;;;10.43;;
83513;SDS011;73447;53.262;10.424;2024-03-06T11:59:01;17.30;;;9.70;;
83513;SDS011;73447;53.262;10.424;2024-03-06T12:01:27;16.35;;;10.02;;
83513;SDS011;73447;53.262;10.424;2024-03-06T12:03:52;15.52;;;10.27;;
83513;SDS011;73447;53.262;10.424;2024-03-06T12:06:19;20.73;;;10.75;;
83513;SDS011;73447;53.262;10.424;2024-03-06T12:08:45;16.15;;;9.65;;
83513;SDS011;73447;53.262;10.424;2024-03-06T12:11:10;15.05;;;9.40;;
83513;SDS011;73447;53.262;10.424;2024-03-06T12:13:35;14.10;;;9.63;;
83513;SDS011;73447;53.262;10.424;2024-03-06T12:16:05;15.63;;;9.60;;
83513;SDS011;73447;53.262;10.424;2024-03-06T12:18:32;18.88;;;11.07;;
83513;SDS011;73447;53.262;10.424;2024-03-06T12:21:00;16.67;;;10.77;;
83513;SDS011;73447;53.262;10.424;2024-03-06T12:23:27;16.33;;;10.25;;
83513;SDS011;73447;53.262;10.424;2024-03-06T12:26:06;17.52;;;10.18;;
83513;SDS011;73447;53.262;10.424;2024-03-06T12:28:39;16.63;;;10.13;;
83513;SDS011;73447;53.262;10.424;2024-03-06T12:31:05;17.85;;;9.82;;
83513;SDS011;73447;53.262;10.424;2024-03-06T12:33:32;18.05;;;9.88;;
83513;SDS011;73447;53.262;10.424;2024-03-06T12:36:05;18.05;;;11.07;;
83513;SDS011;73447;53.262;10.424;2024-03-06T12:38:35;18.08;;;11.02;;
83513;SDS011;73447;53.262;10.424;2024-03-06T12:41:01;19.48;;;10.00;;
83513;SDS011;73447;53.262;10.424;2024-03-06T12:43:27;12.07;;;8.65;;
83513;SDS011;73447;53.262;10.424;2024-03-06T12:45:56;20.70;;;10.57;;
83513;SDS011;73447;53.262;10.424;2024-03-06T12:48:22;16.88;;;10.13;;
83513;SDS011;73447;53.262;10.424;2024-03-06T12:50:49;18.42;;;11.18;;
83513;SDS011;73447;53.262;10.424;2024-03-06T12:53:20;16.20;;;10.50;;
83513;SDS011;73447;53.262;10.424;2024-03-06T12:55:46;18.65;;;10.73;;
83513;SDS011;73447;53.262;10.424;2024-03-06T12:58:12;16.25;;;10.40;;
83513;SDS011;73447;53.262;10.424;2024-03-06T13:00:38;17.70;;;10.10;;
83513;SDS011;73447;53.262;10.424;2024-03-06T13:03:04;17.23;;;10.02;;
83513;SDS011;73447;53.262;10.424;2024-03-06T13:05:30;15.85;;;9.75;;
83513;SDS011;73447;53.262;10.424;2024-03-06T13:07:56;22.38;;;10.63;;
83513;SDS011;73447;53.262;10.424;2024-03-06T13:10:21;15.15;;;9.43;;
83513;SDS011;73447;53.262;10.424;2024-03-06T13:12:47;18.38;;;10.93;;
83513;SDS011;73447;53.262;10.424;2024-03-06T13:15:12;14.95;;;9.73;;
83513;SDS011;73447;53.262;10.424;2024-03-06T13:17:38;15.95;;;10.48;;
83513;SDS011;73447;53.262;10.424;2024-03-06T13:20:05;17.15;;;10.32;;
83513;SDS011;73447;53.262;10.424;2024-03-06T13:22:34;16.80;;;10.10;;
83513;SDS011;73447;53.262;10.424;2024-03-06T13:25:00;17.20;;;10.77;;
83513;SDS011;73447;53.262;10.424;2024-03-06T13:27:25;17.35;;;10.35;;
83513;SDS011;73447;53.262;10.424;2024-03-06T13:29:50;16.80;;;10.35;;
83513;SDS011;73447;53.262;10.424;2024-03-06T13:32:16;22.42;;;11.45;;
83513;SDS011;73447;53.262;10.424;2024-03-06T13:34:42;16.85;;;10.35;;
83513;SDS011;73447;53.262;10.424;2024-03-06T13:37:08;17.23;;;10.45;;
83513;SDS011;73447;53.262;10.424;2024-03-06T13:39:35;18.30;;;10.80;;
83513;SDS011;73447;53.262;10.424;2024-03-06T13:42:01;21.20;;;10.32;;
83513;SDS011;73447;53.262;10.424;2024-03-06T13:44:26;16.70;;;10.38;;
83513;SDS011;73447;53.262;10.424;2024-03-06T13:46:51;15.93;;;10.20;;
83513;SDS011;73447;53.262;10.424;2024-03-06T13:52:03;17.95;;;10.20;;
83513;SDS011;73447;53.262;10.424;2024-03-06T13:54:30;19.70;;;10.32;;
83513;SDS011;73447;53.262;10.424;2024-03-06T13:56:56;14.60;;;9.85;;
83513;SDS011;73447;53.262;10.424;2024-03-06T13:59:26;14.27;;;9.90;;
83513;SDS011;73447;53.262;10.424;2024-03-06T14:01:59;18.42;;;9.95;;
83513;SDS011;73447;53.262;10.424;2024-03-06T14:04:24;19.05;;;9.68;;
83513;SDS011;73447;53.262;10.424;2024-03-06T14:06:50;14.88;;;9.02;;
83513;SDS011;73447;53.262;10.424;2024-03-06T14:09:15;15.27;;;10.20;;
83513;SDS011;73447;53.262;10.424;2024-03-06T14:11:41;17.77;;;10.18;;
83513;SDS011;73447;53.262;10.424;2024-03-06T14:14:06;15.85;;;9.98;;
83513;SDS011;73447;53.262;10.424;2024-03-06T14:16:33;15.70;;;9.25;;
83513;SDS011;73447;53.262;10.424;2024-03-06T14:18:59;19.10;;;10.50;;
83513;SDS011;73447;53.262;10.424;2024-03-06T14:21:25;16.85;;;10.50;;
83513;SDS011;73447;53.262;10.424;2024-03-06T14:23:50;16.75;;;9.98;;
83513;SDS011;73447;53.262;10.424;2024-03-06T14:26:16;21.33;;;10.32;;
83513;SDS011;73447;53.262;10.424;2024-03-06T14:28:41;19.83;;;10.25;;